sensor_id;sensor_type;location;lat;lon;timestamp;temperature;humidity
19829;DHT22;10075;50.924;4.396;2022-10-16T00:01:05;15.30;99.90
19829;DHT22;10075;50.924;4.396;2022-10-16T00:03:32;15.20;99.90
19829;DHT22;10075;50.924;4.396;2022-10-16T00:06:00;15.30;99.90
19829;DHT22;10075;50.924;4.396;2022-10-16T00:08:27;15.30;99.90
19829;DHT22;10075;50.924;4.396;2022-10-16T00:11:00;15.30;99.90
19829;DHT22;10075;50.924;4.396;2022-10-16T00:13:27;15.30;99.90
19829;DHT22;10075;50.924;4.396;2022-10-16T00:15:56;15.20;99.90
19829;DHT22;10075;50.924;4.396;2022-10-16T00:18:23;15.30;99.90
19829;DHT22;10075;50.924;4.396;2022-10-16T00:20:51;15.30;99.90
19829;DHT22;10075;50.924;4.396;2022-10-16T00:23:18;15.20;99.90
19829;DHT22;10075;50.924;4.396;2022-10-16T00:25:53;15.20;99.90
19829;DHT22;10075;50.924;4.396;2022-10-16T00:28:22;15.10;99.90
19829;DHT22;10075;50.924;4.396;2022-10-16T00:30:49;15.20;99.90
19829;DHT22;10075;50.924;4.396;2022-10-16T00:33:16;15.20;99.90
19829;DHT22;10075;50.924;4.396;2022-10-16T00:35:43;15.30;99.90
19829;DHT22;10075;50.924;4.396;2022-10-16T00:38:10;15.30;99.90
19829;DHT22;10075;50.924;4.396;2022-10-16T00:40:37;15.30;99.90
19829;DHT22;10075;50.924;4.396;2022-10-16T00:43:12;15.30;99.90
19829;DHT22;10075;50.924;4.396;2022-10-16T00:45:41;15.30;99.90
19829;DHT22;10075;50.924;4.396;2022-10-16T00:48:11;15.20;99.90
19829;DHT22;10075;50.924;4.396;2022-10-16T00:50:39;15.10;99.90
19829;DHT22;10075;50.924;4.396;2022-10-16T00:53:09;15.00;99.90
19829;DHT22;10075;50.924;4.396;2022-10-16T00:55:36;15.00;99.90
19829;DHT22;10075;50.924;4.396;2022-10-16T00:58:03;15.00;99.90
19829;DHT22;10075;50.924;4.396;2022-10-16T01:00:30;15.00;99.90
19829;DHT22;10075;50.924;4.396;2022-10-16T01:03:00;15.00;99.90
19829;DHT22;10075;50.924;4.396;2022-10-16T01:05:33;15.00;99.90
19829;DHT22;10075;50.924;4.396;2022-10-16T01:08:08;14.90;99.90
19829;DHT22;10075;50.924;4.396;2022-10-16T01:10:41;14.90;99.90
19829;DHT22;10075;50.924;4.396;2022-10-16T01:13:18;14.80;99.90
19829;DHT22;10075;50.924;4.396;2022-10-16T01:15:48;14.80;99.90
19829;DHT22;10075;50.924;4.396;2022-10-16T01:18:21;14.70;99.90
19829;DHT22;10075;50.924;4.396;2022-10-16T01:20:54;14.60;99.90
19829;DHT22;10075;50.924;4.396;2022-10-16T01:23:39;14.70;99.90
19829;DHT22;10075;50.924;4.396;2022-10-16T01:26:36;14.80;99.90
19829;DHT22;10075;50.924;4.396;2022-10-16T01:29:16;14.70;99.90
19829;DHT22;10075;50.924;4.396;2022-10-16T01:31:50;14.60;99.90
19829;DHT22;10075;50.924;4.396;2022-10-16T01:34:27;14.60;99.90
19829;DHT22;10075;50.924;4.396;2022-10-16T01:37:02;14.70;99.90
19829;DHT22;10075;50.924;4.396;2022-10-16T01:39:33;14.70;99.90
19829;DHT22;10075;50.924;4.396;2022-10-16T01:42:06;14.70;99.90
19829;DHT22;10075;50.924;4.396;2022-10-16T01:44:37;14.70;99.90
19829;DHT22;10075;50.924;4.396;2022-10-16T01:47:06;14.70;99.90
19829;DHT22;10075;50.924;4.396;2022-10-16T01:49:36;14.50;99.90
19829;DHT22;10075;50.924;4.396;2022-10-16T01:52:07;14.50;99.90
19829;DHT22;10075;50.924;4.396;2022-10-16T01:54:41;14.50;99.90
19829;DHT22;10075;50.924;4.396;2022-10-16T01:57:10;14.60;99.90
19829;DHT22;10075;50.924;4.396;2022-10-16T01:59:44;14.50;99.90
19829;DHT22;10075;50.924;4.396;2022-10-16T02:02:13;14.50;99.90
19829;DHT22;10075;50.924;4.396;2022-10-16T02:04:43;14.50;99.90
19829;DHT22;10075;50.924;4.396;2022-10-16T02:07:12;14.60;99.90
19829;DHT22;10075;50.924;4.396;2022-10-16T02:09:42;14.60;99.90
19829;DHT22;10075;50.924;4.396;2022-10-16T02:12:13;14.60;99.90
19829;DHT22;10075;50.924;4.396;2022-10-16T02:14:43;14.60;99.90
19829;DHT22;10075;50.924;4.396;2022-10-16T02:17:13;14.70;99.90
19829;DHT22;10075;50.924;4.396;2022-10-16T02:19:41;14.70;99.90
19829;DHT22;10075;50.924;4.396;2022-10-16T02:22:15;14.60;99.90
19829;DHT22;10075;50.924;4.396;2022-10-16T02:24:52;14.60;99.90
19829;DHT22;10075;50.924;4.396;2022-10-16T02:27:23;14.50;99.90
19829;DHT22;10075;50.924;4.396;2022-10-16T02:29:55;14.60;99.90
19829;DHT22;10075;50.924;4.396;2022-10-16T02:32:27;14.40;99.90
19829;DHT22;10075;50.924;4.396;2022-10-16T02:34:58;14.50;99.90
19829;DHT22;10075;50.924;4.396;2022-10-16T02:37:27;14.50;99.90
19829;DHT22;10075;50.924;4.396;2022-10-16T02:39:57;14.50;99.90
19829;DHT22;10075;50.924;4.396;2022-10-16T02:42:28;14.60;99.90
19829;DHT22;10075;50.924;4.396;2022-10-16T02:44:57;14.60;99.90
19829;DHT22;10075;50.924;4.396;2022-10-16T02:47:25;14.60;99.90
19829;DHT22;10075;50.924;4.396;2022-10-16T02:49:52;14.50;99.90
19829;DHT22;10075;50.924;4.396;2022-10-16T02:52:19;14.50;99.90
19829;DHT22;10075;50.924;4.396;2022-10-16T02:54:46;14.50;99.90
19829;DHT22;10075;50.924;4.396;2022-10-16T02:57:13;14.40;99.90
19829;DHT22;10075;50.924;4.396;2022-10-16T02:59:40;14.30;99.90
19829;DHT22;10075;50.924;4.396;2022-10-16T03:02:08;14.50;99.90
19829;DHT22;10075;50.924;4.396;2022-10-16T03:04:35;14.70;99.90
19829;DHT22;10075;50.924;4.396;2022-10-16T03:07:03;14.60;99.90
19829;DHT22;10075;50.924;4.396;2022-10-16T03:09:30;14.60;99.90
19829;DHT22;10075;50.924;4.396;2022-10-16T03:11:57;14.60;99.90
19829;DHT22;10075;50.924;4.396;2022-10-16T03:14:24;14.60;99.90
19829;DHT22;10075;50.924;4.396;2022-10-16T03:16:51;14.50;99.90
19829;DHT22;10075;50.924;4.396;2022-10-16T03:19:21;14.60;99.90
19829;DHT22;10075;50.924;4.396;2022-10-16T03:21:48;14.50;99.90
19829;DHT22;10075;50.924;4.396;2022-10-16T03:24:15;14.60;99.90
19829;DHT22;10075;50.924;4.396;2022-10-16T03:26:42;14.60;99.90
19829;DHT22;10075;50.924;4.396;2022-10-16T03:29:09;14.60;99.90
19829;DHT22;10075;50.924;4.396;2022-10-16T03:31:36;14.70;99.90
19829;DHT22;10075;50.924;4.396;2022-10-16T03:34:03;14.70;99.90
19829;DHT22;10075;50.924;4.396;2022-10-16T03:36:31;14.80;99.90
19829;DHT22;10075;50.924;4.396;2022-10-16T03:38:58;14.70;99.90
19829;DHT22;10075;50.924;4.396;2022-10-16T03:41:28;14.70;99.90
19829;DHT22;10075;50.924;4.396;2022-10-16T03:43:55;14.70;99.90
19829;DHT22;10075;50.924;4.396;2022-10-16T03:46:22;14.80;99.90
19829;DHT22;10075;50.924;4.396;2022-10-16T03:48:49;14.70;99.90
19829;DHT22;10075;50.924;4.396;2022-10-16T03:51:16;14.70;99.90
19829;DHT22;10075;50.924;4.396;2022-10-16T03:53:44;14.70;99.90
19829;DHT22;10075;50.924;4.396;2022-10-16T03:56:11;14.70;99.90
19829;DHT22;10075;50.924;4.396;2022-10-16T03:58:38;14.60;99.90
19829;DHT22;10075;50.924;4.396;2022-10-16T04:01:05;14.50;99.90
19829;DHT22;10075;50.924;4.396;2022-10-16T04:03:32;14.50;99.90
19829;DHT22;10075;50.924;4.396;2022-10-16T04:05:59;14.50;99.90
19829;DHT22;10075;50.924;4.396;2022-10-16T04:08:26;14.50;99.90
19829;DHT22;10075;50.924;4.396;2022-10-16T04:10:54;14.50;99.90
19829;DHT22;10075;50.924;4.396;2022-10-16T04:13:21;14.50;99.90
19829;DHT22;10075;50.924;4.396;2022-10-16T04:15:48;14.60;99.90
19829;DHT22;10075;50.924;4.396;2022-10-16T04:18:15;14.60;99.90
19829;DHT22;10075;50.924;4.396;2022-10-16T04:20:42;14.70;99.90
19829;DHT22;10075;50.924;4.396;2022-10-16T04:23:09;14.70;99.90
19829;DHT22;10075;50.924;4.396;2022-10-16T04:25:36;14.50;99.90
19829;DHT22;10075;50.924;4.396;2022-10-16T04:28:04;14.60;99.90
19829;DHT22;10075;50.924;4.396;2022-10-16T04:30:31;14.50;99.90
19829;DHT22;10075;50.924;4.396;2022-10-16T04:32:59;14.50;99.90
19829;DHT22;10075;50.924;4.396;2022-10-16T04:35:26;14.50;99.90
19829;DHT22;10075;50.924;4.396;2022-10-16T04:37:53;14.50;99.90
19829;DHT22;10075;50.924;4.396;2022-10-16T04:40:20;14.40;99.90
19829;DHT22;10075;50.924;4.396;2022-10-16T04:42:47;14.40;99.90
19829;DHT22;10075;50.924;4.396;2022-10-16T04:45:15;14.40;99.90
19829;DHT22;10075;50.924;4.396;2022-10-16T04:47:42;14.40;99.90
19829;DHT22;10075;50.924;4.396;2022-10-16T04:50:09;14.40;99.90
19829;DHT22;10075;50.924;4.396;2022-10-16T04:52:36;14.40;99.90
19829;DHT22;10075;50.924;4.396;2022-10-16T04:55:04;14.40;99.90
19829;DHT22;10075;50.924;4.396;2022-10-16T04:57:31;14.30;99.90
19829;DHT22;10075;50.924;4.396;2022-10-16T04:59:59;14.30;99.90
19829;DHT22;10075;50.924;4.396;2022-10-16T05:02:27;14.30;99.90
19829;DHT22;10075;50.924;4.396;2022-10-16T05:04:54;14.30;99.90
19829;DHT22;10075;50.924;4.396;2022-10-16T05:07:21;14.30;99.90
19829;DHT22;10075;50.924;4.396;2022-10-16T05:09:48;14.30;99.90
19829;DHT22;10075;50.924;4.396;2022-10-16T05:12:15;14.20;99.90
19829;DHT22;10075;50.924;4.396;2022-10-16T05:14:41;14.10;99.90
19829;DHT22;10075;50.924;4.396;2022-10-16T05:17:09;14.20;99.90
19829;DHT22;10075;50.924;4.396;2022-10-16T05:19:37;14.20;99.90
19829;DHT22;10075;50.924;4.396;2022-10-16T05:22:04;14.30;99.90
19829;DHT22;10075;50.924;4.396;2022-10-16T05:24:31;14.10;99.90
19829;DHT22;10075;50.924;4.396;2022-10-16T05:26:58;14.10;99.90
19829;DHT22;10075;50.924;4.396;2022-10-16T05:29:25;14.20;99.90
19829;DHT22;10075;50.924;4.396;2022-10-16T05:31:52;14.20;99.90
19829;DHT22;10075;50.924;4.396;2022-10-16T05:34:19;14.10;99.90
19829;DHT22;10075;50.924;4.396;2022-10-16T05:36:48;14.10;99.90
19829;DHT22;10075;50.924;4.396;2022-10-16T05:39:15;14.10;99.90
19829;DHT22;10075;50.924;4.396;2022-10-16T05:41:42;14.10;99.90
19829;DHT22;10075;50.924;4.396;2022-10-16T05:44:09;14.20;99.90
19829;DHT22;10075;50.924;4.396;2022-10-16T05:46:36;14.10;99.90
19829;DHT22;10075;50.924;4.396;2022-10-16T05:49:04;14.00;99.90
19829;DHT22;10075;50.924;4.396;2022-10-16T05:51:31;14.10;99.90
19829;DHT22;10075;50.924;4.396;2022-10-16T05:53:59;14.20;99.90
19829;DHT22;10075;50.924;4.396;2022-10-16T05:56:26;14.20;99.90
19829;DHT22;10075;50.924;4.396;2022-10-16T05:58:53;14.30;99.90
19829;DHT22;10075;50.924;4.396;2022-10-16T06:01:20;14.20;99.90
19829;DHT22;10075;50.924;4.396;2022-10-16T06:03:50;14.20;99.90
19829;DHT22;10075;50.924;4.396;2022-10-16T06:06:18;14.10;99.90
19829;DHT22;10075;50.924;4.396;2022-10-16T06:08:47;14.10;99.90
19829;DHT22;10075;50.924;4.396;2022-10-16T06:11:18;14.20;99.90
19829;DHT22;10075;50.924;4.396;2022-10-16T06:13:49;14.30;99.90
19829;DHT22;10075;50.924;4.396;2022-10-16T06:16:16;14.30;99.90
19829;DHT22;10075;50.924;4.396;2022-10-16T06:18:43;14.40;99.90
19829;DHT22;10075;50.924;4.396;2022-10-16T06:21:11;14.40;99.90
19829;DHT22;10075;50.924;4.396;2022-10-16T06:23:38;14.50;99.90
19829;DHT22;10075;50.924;4.396;2022-10-16T06:26:06;14.60;99.90
19829;DHT22;10075;50.924;4.396;2022-10-16T06:28:35;14.60;99.90
19829;DHT22;10075;50.924;4.396;2022-10-16T06:31:03;14.60;99.90
19829;DHT22;10075;50.924;4.396;2022-10-16T06:33:31;14.60;99.90
19829;DHT22;10075;50.924;4.396;2022-10-16T06:36:02;14.60;99.90
19829;DHT22;10075;50.924;4.396;2022-10-16T06:38:30;14.60;99.90
19829;DHT22;10075;50.924;4.396;2022-10-16T06:40:57;14.60;99.90
19829;DHT22;10075;50.924;4.396;2022-10-16T06:43:25;14.70;99.90
19829;DHT22;10075;50.924;4.396;2022-10-16T06:45:54;14.70;99.90
19829;DHT22;10075;50.924;4.396;2022-10-16T06:48:22;14.70;99.90
19829;DHT22;10075;50.924;4.396;2022-10-16T06:50:56;14.70;99.90
19829;DHT22;10075;50.924;4.396;2022-10-16T06:53:24;14.80;99.90
19829;DHT22;10075;50.924;4.396;2022-10-16T06:55:51;14.80;99.90
19829;DHT22;10075;50.924;4.396;2022-10-16T06:58:18;14.80;99.90
19829;DHT22;10075;50.924;4.396;2022-10-16T07:00:45;14.90;99.90
19829;DHT22;10075;50.924;4.396;2022-10-16T07:03:13;14.80;99.90
19829;DHT22;10075;50.924;4.396;2022-10-16T07:05:41;15.00;99.90
19829;DHT22;10075;50.924;4.396;2022-10-16T07:08:09;14.90;99.90
19829;DHT22;10075;50.924;4.396;2022-10-16T07:10:36;15.00;99.90
19829;DHT22;10075;50.924;4.396;2022-10-16T07:13:03;15.10;99.90
19829;DHT22;10075;50.924;4.396;2022-10-16T07:15:30;15.00;99.90
19829;DHT22;10075;50.924;4.396;2022-10-16T07:17:57;14.90;99.90
19829;DHT22;10075;50.924;4.396;2022-10-16T07:20:25;14.80;99.90
19829;DHT22;10075;50.924;4.396;2022-10-16T07:22:52;14.80;99.90
19829;DHT22;10075;50.924;4.396;2022-10-16T07:25:19;14.80;99.90
19829;DHT22;10075;50.924;4.396;2022-10-16T07:27:46;14.80;99.90
19829;DHT22;10075;50.924;4.396;2022-10-16T07:30:13;15.00;99.90
19829;DHT22;10075;50.924;4.396;2022-10-16T07:32:40;14.90;99.90
19829;DHT22;10075;50.924;4.396;2022-10-16T07:35:07;14.80;99.90
19829;DHT22;10075;50.924;4.396;2022-10-16T07:37:36;14.90;99.90
19829;DHT22;10075;50.924;4.396;2022-10-16T07:40:04;15.00;99.90
19829;DHT22;10075;50.924;4.396;2022-10-16T07:42:31;15.20;99.90
19829;DHT22;10075;50.924;4.396;2022-10-16T07:44:58;15.20;99.90
19829;DHT22;10075;50.924;4.396;2022-10-16T07:47:25;15.20;99.90
19829;DHT22;10075;50.924;4.396;2022-10-16T07:49:51;15.30;99.90
19829;DHT22;10075;50.924;4.396;2022-10-16T07:52:18;15.30;99.90
19829;DHT22;10075;50.924;4.396;2022-10-16T07:54:47;15.40;99.90
19829;DHT22;10075;50.924;4.396;2022-10-16T07:57:14;15.50;99.90
19829;DHT22;10075;50.924;4.396;2022-10-16T07:59:44;15.50;99.90
19829;DHT22;10075;50.924;4.396;2022-10-16T08:02:11;15.50;99.90
19829;DHT22;10075;50.924;4.396;2022-10-16T08:04:38;15.60;99.90
19829;DHT22;10075;50.924;4.396;2022-10-16T08:07:07;15.70;99.90
19829;DHT22;10075;50.924;4.396;2022-10-16T08:09:34;15.70;99.90
19829;DHT22;10075;50.924;4.396;2022-10-16T08:12:03;15.70;99.90
19829;DHT22;10075;50.924;4.396;2022-10-16T08:14:30;15.80;99.90
19829;DHT22;10075;50.924;4.396;2022-10-16T08:16:57;15.90;99.90
19829;DHT22;10075;50.924;4.396;2022-10-16T08:19:24;15.90;99.90
19829;DHT22;10075;50.924;4.396;2022-10-16T08:21:51;15.90;99.90
19829;DHT22;10075;50.924;4.396;2022-10-16T08:24:18;16.00;99.90
19829;DHT22;10075;50.924;4.396;2022-10-16T08:26:45;16.00;99.90
19829;DHT22;10075;50.924;4.396;2022-10-16T08:29:14;16.00;99.90
19829;DHT22;10075;50.924;4.396;2022-10-16T08:31:41;16.20;99.90
19829;DHT22;10075;50.924;4.396;2022-10-16T08:34:08;16.10;99.90
19829;DHT22;10075;50.924;4.396;2022-10-16T08:36:35;16.10;99.90
19829;DHT22;10075;50.924;4.396;2022-10-16T08:39:03;16.20;99.90
19829;DHT22;10075;50.924;4.396;2022-10-16T08:42:09;16.30;99.90
19829;DHT22;10075;50.924;4.396;2022-10-16T08:47:48;16.40;99.90
19829;DHT22;10075;50.924;4.396;2022-10-16T08:50:21;16.30;99.90
19829;DHT22;10075;50.924;4.396;2022-10-16T08:52:49;16.20;99.90
19829;DHT22;10075;50.924;4.396;2022-10-16T08:55:30;16.40;99.90
19829;DHT22;10075;50.924;4.396;2022-10-16T08:57:59;16.50;99.90
19829;DHT22;10075;50.924;4.396;2022-10-16T09:00:28;16.50;99.90
19829;DHT22;10075;50.924;4.396;2022-10-16T09:03:01;16.50;99.90
19829;DHT22;10075;50.924;4.396;2022-10-16T09:05:57;16.60;99.90
19829;DHT22;10075;50.924;4.396;2022-10-16T09:08:33;16.60;99.90
19829;DHT22;10075;50.924;4.396;2022-10-16T09:11:07;16.80;99.90
19829;DHT22;10075;50.924;4.396;2022-10-16T09:13:43;16.90;99.90
19829;DHT22;10075;50.924;4.396;2022-10-16T09:16:21;17.00;99.90
19829;DHT22;10075;50.924;4.396;2022-10-16T09:18:57;16.90;99.90
19829;DHT22;10075;50.924;4.396;2022-10-16T09:21:29;17.00;99.90
19829;DHT22;10075;50.924;4.396;2022-10-16T09:23:59;16.90;99.90
19829;DHT22;10075;50.924;4.396;2022-10-16T09:26:31;17.00;99.90
19829;DHT22;10075;50.924;4.396;2022-10-16T09:28:58;17.00;99.90
19829;DHT22;10075;50.924;4.396;2022-10-16T09:31:26;16.90;99.90
19829;DHT22;10075;50.924;4.396;2022-10-16T09:33:58;17.00;99.90
19829;DHT22;10075;50.924;4.396;2022-10-16T09:36:28;17.10;99.90
19829;DHT22;10075;50.924;4.396;2022-10-16T09:39:03;17.20;99.90
19829;DHT22;10075;50.924;4.396;2022-10-16T09:41:33;17.40;99.90
19829;DHT22;10075;50.924;4.396;2022-10-16T09:44:01;17.20;99.90
19829;DHT22;10075;50.924;4.396;2022-10-16T09:46:31;17.40;99.90
19829;DHT22;10075;50.924;4.396;2022-10-16T09:49:00;17.60;99.90
19829;DHT22;10075;50.924;4.396;2022-10-16T09:51:29;17.60;99.90
19829;DHT22;10075;50.924;4.396;2022-10-16T09:53:59;17.80;99.90
19829;DHT22;10075;50.924;4.396;2022-10-16T09:56:27;17.70;99.90
19829;DHT22;10075;50.924;4.396;2022-10-16T09:58:56;17.70;99.90
19829;DHT22;10075;50.924;4.396;2022-10-16T10:01:28;17.60;99.90
19829;DHT22;10075;50.924;4.396;2022-10-16T10:03:58;17.70;99.90
19829;DHT22;10075;50.924;4.396;2022-10-16T10:06:30;17.80;99.90
19829;DHT22;10075;50.924;4.396;2022-10-16T10:09:04;17.90;99.90
19829;DHT22;10075;50.924;4.396;2022-10-16T10:11:52;17.90;99.90
19829;DHT22;10075;50.924;4.396;2022-10-16T10:14:22;17.80;99.90
19829;DHT22;10075;50.924;4.396;2022-10-16T10:16:50;17.70;99.90
19829;DHT22;10075;50.924;4.396;2022-10-16T10:19:21;17.60;99.90
19829;DHT22;10075;50.924;4.396;2022-10-16T10:21:49;17.60;99.90
19829;DHT22;10075;50.924;4.396;2022-10-16T10:24:18;17.60;99.90
19829;DHT22;10075;50.924;4.396;2022-10-16T10:26:50;17.60;99.90
19829;DHT22;10075;50.924;4.396;2022-10-16T10:29:39;17.60;99.90
19829;DHT22;10075;50.924;4.396;2022-10-16T10:32:19;17.80;99.90
19829;DHT22;10075;50.924;4.396;2022-10-16T10:35:01;17.70;99.90
19829;DHT22;10075;50.924;4.396;2022-10-16T10:37:42;17.80;99.90
19829;DHT22;10075;50.924;4.396;2022-10-16T10:40:22;17.70;99.90
19829;DHT22;10075;50.924;4.396;2022-10-16T10:42:56;17.80;99.90
19829;DHT22;10075;50.924;4.396;2022-10-16T10:45:27;17.90;99.90
19829;DHT22;10075;50.924;4.396;2022-10-16T10:48:16;18.00;99.90
19829;DHT22;10075;50.924;4.396;2022-10-16T10:50:49;17.80;99.90
19829;DHT22;10075;50.924;4.396;2022-10-16T10:53:28;17.90;99.90
19829;DHT22;10075;50.924;4.396;2022-10-16T10:56:08;17.90;99.90
19829;DHT22;10075;50.924;4.396;2022-10-16T10:58:57;17.90;99.90
19829;DHT22;10075;50.924;4.396;2022-10-16T11:01:35;17.90;99.90
19829;DHT22;10075;50.924;4.396;2022-10-16T11:04:32;17.90;99.90
19829;DHT22;10075;50.924;4.396;2022-10-16T11:07:04;18.10;99.90
19829;DHT22;10075;50.924;4.396;2022-10-16T11:09:36;18.40;99.90
19829;DHT22;10075;50.924;4.396;2022-10-16T11:12:09;18.70;99.90
19829;DHT22;10075;50.924;4.396;2022-10-16T11:14:44;18.70;99.90
19829;DHT22;10075;50.924;4.396;2022-10-16T11:17:15;18.80;99.90
19829;DHT22;10075;50.924;4.396;2022-10-16T11:19:48;19.00;99.90
19829;DHT22;10075;50.924;4.396;2022-10-16T11:22:19;19.10;99.90
19829;DHT22;10075;50.924;4.396;2022-10-16T11:24:52;19.20;99.90
19829;DHT22;10075;50.924;4.396;2022-10-16T11:27:24;19.40;99.90
19829;DHT22;10075;50.924;4.396;2022-10-16T11:29:57;19.50;99.90
19829;DHT22;10075;50.924;4.396;2022-10-16T11:32:38;19.50;99.90
19829;DHT22;10075;50.924;4.396;2022-10-16T11:35:15;19.40;99.90
19829;DHT22;10075;50.924;4.396;2022-10-16T11:37:48;19.30;99.90
19829;DHT22;10075;50.924;4.396;2022-10-16T11:40:22;19.30;99.90
19829;DHT22;10075;50.924;4.396;2022-10-16T11:42:55;19.50;99.90
19829;DHT22;10075;50.924;4.396;2022-10-16T11:45:29;19.50;99.90
19829;DHT22;10075;50.924;4.396;2022-10-16T11:48:03;19.40;99.90
19829;DHT22;10075;50.924;4.396;2022-10-16T11:50:34;19.50;99.90
19829;DHT22;10075;50.924;4.396;2022-10-16T11:53:11;19.60;99.90
19829;DHT22;10075;50.924;4.396;2022-10-16T11:55:41;19.70;99.90
19829;DHT22;10075;50.924;4.396;2022-10-16T11:58:15;19.70;99.90
19829;DHT22;10075;50.924;4.396;2022-10-16T12:00:54;19.50;99.90
19829;DHT22;10075;50.924;4.396;2022-10-16T12:03:27;19.20;99.90
19829;DHT22;10075;50.924;4.396;2022-10-16T12:06:06;19.10;99.90
19829;DHT22;10075;50.924;4.396;2022-10-16T12:08:39;19.10;99.90
19829;DHT22;10075;50.924;4.396;2022-10-16T12:11:08;19.20;99.90
19829;DHT22;10075;50.924;4.396;2022-10-16T12:13:36;19.40;99.90
19829;DHT22;10075;50.924;4.396;2022-10-16T12:18:47;20.00;99.90
19829;DHT22;10075;50.924;4.396;2022-10-16T12:21:16;20.30;99.90
19829;DHT22;10075;50.924;4.396;2022-10-16T12:23:50;20.50;99.90
19829;DHT22;10075;50.924;4.396;2022-10-16T12:26:25;20.80;99.90
19829;DHT22;10075;50.924;4.396;2022-10-16T12:28:52;20.80;99.90
19829;DHT22;10075;50.924;4.396;2022-10-16T12:31:20;20.90;99.90
19829;DHT22;10075;50.924;4.396;2022-10-16T12:33:57;21.00;99.90
19829;DHT22;10075;50.924;4.396;2022-10-16T12:36:30;21.10;99.90
19829;DHT22;10075;50.924;4.396;2022-10-16T12:39:00;21.20;99.90
19829;DHT22;10075;50.924;4.396;2022-10-16T12:41:29;21.40;99.90
19829;DHT22;10075;50.924;4.396;2022-10-16T12:43:57;21.30;99.90
19829;DHT22;10075;50.924;4.396;2022-10-16T12:46:38;21.30;99.90
19829;DHT22;10075;50.924;4.396;2022-10-16T12:51:58;21.50;99.90
19829;DHT22;10075;50.924;4.396;2022-10-16T12:54:28;21.50;99.90
19829;DHT22;10075;50.924;4.396;2022-10-16T12:57:09;21.70;99.90
19829;DHT22;10075;50.924;4.396;2022-10-16T12:59:50;21.70;99.90
19829;DHT22;10075;50.924;4.396;2022-10-16T13:05:31;21.90;99.90
19829;DHT22;10075;50.924;4.396;2022-10-16T13:08:12;21.90;99.90
19829;DHT22;10075;50.924;4.396;2022-10-16T13:10:51;21.90;99.90
19829;DHT22;10075;50.924;4.396;2022-10-16T13:13:45;22.10;99.90
19829;DHT22;10075;50.924;4.396;2022-10-16T13:16:22;22.30;99.90
19829;DHT22;10075;50.924;4.396;2022-10-16T13:18:59;22.30;99.90
19829;DHT22;10075;50.924;4.396;2022-10-16T13:21:37;22.30;99.90
19829;DHT22;10075;50.924;4.396;2022-10-16T13:24:15;22.40;99.90
19829;DHT22;10075;50.924;4.396;2022-10-16T13:26:52;22.20;99.90
19829;DHT22;10075;50.924;4.396;2022-10-16T13:29:21;22.00;99.90
19829;DHT22;10075;50.924;4.396;2022-10-16T13:31:49;21.90;99.90
19829;DHT22;10075;50.924;4.396;2022-10-16T13:34:19;21.90;99.90
19829;DHT22;10075;50.924;4.396;2022-10-16T13:36:49;21.90;99.90
19829;DHT22;10075;50.924;4.396;2022-10-16T13:39:22;21.90;99.90
19829;DHT22;10075;50.924;4.396;2022-10-16T13:42:02;22.00;99.90
19829;DHT22;10075;50.924;4.396;2022-10-16T13:44:34;22.10;99.90
19829;DHT22;10075;50.924;4.396;2022-10-16T13:47:02;22.10;99.90
19829;DHT22;10075;50.924;4.396;2022-10-16T13:49:29;22.00;99.90
19829;DHT22;10075;50.924;4.396;2022-10-16T13:51:57;22.00;99.90
19829;DHT22;10075;50.924;4.396;2022-10-16T13:54:26;21.90;99.90
19829;DHT22;10075;50.924;4.396;2022-10-16T13:56:54;21.90;99.90
19829;DHT22;10075;50.924;4.396;2022-10-16T13:59:27;21.70;99.90
19829;DHT22;10075;50.924;4.396;2022-10-16T14:01:59;21.60;99.90
19829;DHT22;10075;50.924;4.396;2022-10-16T14:04:30;21.50;99.90
19829;DHT22;10075;50.924;4.396;2022-10-16T14:06:58;21.50;99.90
19829;DHT22;10075;50.924;4.396;2022-10-16T14:09:27;21.30;99.90
19829;DHT22;10075;50.924;4.396;2022-10-16T14:11:56;21.30;99.90
19829;DHT22;10075;50.924;4.396;2022-10-16T14:14:30;21.30;99.90
19829;DHT22;10075;50.924;4.396;2022-10-16T14:16:58;21.40;99.90
19829;DHT22;10075;50.924;4.396;2022-10-16T14:19:27;21.50;99.90
19829;DHT22;10075;50.924;4.396;2022-10-16T14:21:54;21.60;99.90
19829;DHT22;10075;50.924;4.396;2022-10-16T14:24:26;21.50;99.90
19829;DHT22;10075;50.924;4.396;2022-10-16T14:26:54;21.70;99.90
19829;DHT22;10075;50.924;4.396;2022-10-16T14:29:23;21.80;99.90
19829;DHT22;10075;50.924;4.396;2022-10-16T14:31:59;21.80;99.90
19829;DHT22;10075;50.924;4.396;2022-10-16T14:34:29;21.70;99.90
19829;DHT22;10075;50.924;4.396;2022-10-16T14:36:59;21.60;99.90
19829;DHT22;10075;50.924;4.396;2022-10-16T14:39:30;21.50;99.90
19829;DHT22;10075;50.924;4.396;2022-10-16T14:41:57;21.30;99.90
19829;DHT22;10075;50.924;4.396;2022-10-16T14:44:29;21.20;99.90
19829;DHT22;10075;50.924;4.396;2022-10-16T14:47:07;21.10;99.90
19829;DHT22;10075;50.924;4.396;2022-10-16T14:49:34;21.00;99.90
19829;DHT22;10075;50.924;4.396;2022-10-16T14:52:01;21.00;99.90
19829;DHT22;10075;50.924;4.396;2022-10-16T14:54:31;20.90;99.90
19829;DHT22;10075;50.924;4.396;2022-10-16T14:56:58;21.00;99.90
19829;DHT22;10075;50.924;4.396;2022-10-16T14:59:30;21.00;99.90
19829;DHT22;10075;50.924;4.396;2022-10-16T15:01:59;21.10;99.90
19829;DHT22;10075;50.924;4.396;2022-10-16T15:04:27;21.20;99.90
19829;DHT22;10075;50.924;4.396;2022-10-16T15:06:54;21.30;99.90
19829;DHT22;10075;50.924;4.396;2022-10-16T15:09:21;21.30;99.90
19829;DHT22;10075;50.924;4.396;2022-10-16T15:11:48;21.30;99.90
19829;DHT22;10075;50.924;4.396;2022-10-16T15:14:15;21.30;99.90
19829;DHT22;10075;50.924;4.396;2022-10-16T15:16:42;21.30;99.90
19829;DHT22;10075;50.924;4.396;2022-10-16T15:19:10;21.30;99.90
19829;DHT22;10075;50.924;4.396;2022-10-16T15:21:37;21.20;99.90
19829;DHT22;10075;50.924;4.396;2022-10-16T15:24:09;21.20;99.90
19829;DHT22;10075;50.924;4.396;2022-10-16T15:26:37;21.20;99.90
19829;DHT22;10075;50.924;4.396;2022-10-16T15:29:06;21.00;99.90
19829;DHT22;10075;50.924;4.396;2022-10-16T15:31:33;20.90;99.90
19829;DHT22;10075;50.924;4.396;2022-10-16T15:34:00;20.90;99.90
19829;DHT22;10075;50.924;4.396;2022-10-16T15:36:32;20.80;99.90
19829;DHT22;10075;50.924;4.396;2022-10-16T15:39:02;20.70;99.90
19829;DHT22;10075;50.924;4.396;2022-10-16T15:41:29;20.70;99.90
19829;DHT22;10075;50.924;4.396;2022-10-16T15:43:56;20.60;99.90
19829;DHT22;10075;50.924;4.396;2022-10-16T15:46:24;20.60;99.90
19829;DHT22;10075;50.924;4.396;2022-10-16T15:48:51;20.40;99.90
19829;DHT22;10075;50.924;4.396;2022-10-16T15:51:22;20.30;99.90
19829;DHT22;10075;50.924;4.396;2022-10-16T15:53:50;20.20;99.90
19829;DHT22;10075;50.924;4.396;2022-10-16T15:56:18;20.20;99.90
19829;DHT22;10075;50.924;4.396;2022-10-16T15:58:45;20.20;99.90
19829;DHT22;10075;50.924;4.396;2022-10-16T16:01:12;20.10;99.90